Terminal Aerodrome Forecast
Issued by NWS

Home | Current Version | Previous Version | Text Only | Print | Product List | Glossary On
Versions: 1 2 3 4 5 6 7 8 9 10 11 12 13 14 15 16 17 18 19 20 21 22 23 24 25 26 27
000
FTUS45 KBYZ 051006 AAA
TAFLVM
TAF AMD
KLVM 051006Z 0510/0606 09014G19KT P6SM SCT009 OVC012
      TEMPO 0510/0514 OVC009
     FM051700 07009KT P6SM SCT035 BKN050
     FM052000 24024G34KT P6SM VCSH BKN100
     FM060300 26015G23KT P6SM SCT120=

USA.gov is the U.S. government's official web portal to all federal, state and local government web resources and services.